Aérodrome :
LOGIN :

S'inscrire | Disclaimer

   EN    FR    IT 

 










Légende :    VFR   VFR Marginal   IFR   IFR Intensif   IFR Très Intensif
Visi : 
Plafond : 
>= 8 km
>= 3000ft
5 à 8 km
1000 à 3000 ft
1500m à 5 km
500 à 1000 ft
800 à 1500m
200 à 500 ft
< 800m
< 200 ft
Symboles :   Orages  Brouillard  Fortes neiges  Fortes précipitations  Vent > 20 kt
SIGMETs :   Divers  Orages  Givrage  Turbulence  Onde Orograph.  Cendres Volcan.






- Altitude de l'aérodrome : 1966 ft
- Code IATA : SGE


EDGS - Siegerland

DERNIER METAR :
  • 170250Z AUTO 19006KT 7000 // SCT006/// OVC008/// 12/11 Q1011

METARs EXPIRÉS :
  • 170220Z AUTO 19006KT 9000 // FEW007/// BKN009/// OVC040/// 12/11 Q1011
  • 170150Z AUTO 18006KT 9999 // OVC009/// 12/11 Q1011
  • 170120Z AUTO 19007KT 9999 // BKN011/// OVC019/// 12/11 Q1011
  • 170050Z AUTO 19009KT 9999 // FEW013/// BKN033/// OVC062/// 12/11 Q1011
  • 170020Z AUTO 18007KT 9999 // BKN014/// BKN043/// OVC050/// 12/11 Q1011
  • 162350Z AUTO 19007KT 9999 // FEW040/// OVC061/// 12/11 Q1011
  • 162320Z AUTO 19009KT 9999 // SCT015/// BKN045/// OVC072/// 12/11 Q1011
  • 162250Z AUTO 20007KT 9999 // FEW018/// SCT048/// OVC054/// 12/11 Q1011
  • 162220Z AUTO 20009KT 170V240 9999 // BKN060/// OVC068/// 12/11 Q1011

Prévision TAF périmée.



MET'MAP, la Météo Aéronautique d'un coup d'oeil ! - Copyright ORBIFLY Décembre 2007 - Disclaimer

ORBIFLY MET'MAP TEAM :

Programmation & Développement : Alexandra Zaïnal
Sur une idée originale de : Baudouin d'Aumeries
Soutien technique & logistique : Manuel Goepfert
Assistance : Marc-Olivier Méhu




SOURCES & CREDITS :

   NOAA